createdAt,value
2018-01-31T01:53:03.002Z,96.20
2018-01-31T01:55:32.407Z,96.20
2018-01-31T01:58:01.117Z,96.20
2018-01-31T02:00:29.759Z,96.20
2018-01-31T02:02:59.135Z,96.00
2018-01-31T02:05:27.939Z,95.70
2018-01-31T02:07:56.608Z,95.80
2018-01-31T02:10:25.258Z,96.00
2018-01-31T02:12:54.105Z,95.80
2018-01-31T02:15:22.874Z,95.90
2018-01-31T02:17:51.698Z,95.80
2018-01-31T02:20:20.416Z,95.90
2018-01-31T02:38:40.761Z,95.60
2018-01-31T02:41:10.212Z,95.70
2018-01-31T02:43:38.983Z,95.70
2018-01-31T02:46:07.905Z,95.70
2018-01-31T02:48:36.680Z,95.60
2018-01-31T02:51:05.353Z,95.60
2018-01-31T02:53:34.977Z,96.10
2018-01-31T02:56:03.746Z,96.10
2018-01-31T02:58:32.546Z,96.10
2018-01-31T03:01:01.279Z,96.10
2018-01-31T03:03:30.423Z,96.20
2018-01-31T03:05:59.153Z,96.10
2018-01-31T03:08:27.770Z,96.30
2018-01-31T03:10:56.396Z,96.20
2018-01-31T03:13:25.104Z,96.10
2018-01-31T03:15:53.792Z,96.10
2018-01-31T03:18:23.765Z,96.60
2018-01-31T03:20:52.495Z,96.50
2018-01-31T03:23:21.194Z,96.70
2018-01-31T03:25:49.830Z,96.60
2018-01-31T03:28:18.569Z,96.70
2018-01-31T03:30:48.033Z,96.80
2018-01-31T03:33:16.707Z,97.00
2018-01-31T03:35:45.314Z,96.90
2018-01-31T03:38:14.902Z,97.30
2018-01-31T03:40:43.580Z,97.20
2018-01-31T03:43:12.232Z,97.30
2018-01-31T03:45:41.665Z,97.30
2018-01-31T03:48:10.258Z,97.30
2018-01-31T03:50:38.861Z,97.40
2018-01-31T03:53:07.526Z,97.50
2018-01-31T03:55:36.230Z,97.40
2018-01-31T03:58:04.856Z,97.20
2018-01-31T04:00:33.519Z,97.40
2018-01-31T04:03:02.107Z,97.40
2018-01-31T04:05:30.707Z,97.40
2018-01-31T04:08:00.201Z,97.30
2018-01-31T04:10:28.864Z,97.30
2018-01-31T04:12:58.369Z,97.50
2018-01-31T04:15:27.017Z,97.50
2018-01-31T04:17:55.700Z,97.20
2018-01-31T04:20:24.324Z,97.20
2018-01-31T04:22:53.938Z,96.90
2018-01-31T04:25:24.369Z,96.90
2018-01-31T04:27:53.001Z,96.70
2018-01-31T04:30:22.535Z,96.90
2018-01-31T04:32:51.226Z,97.10
2018-01-31T04:35:19.817Z,96.80
2018-01-31T04:37:48.482Z,96.60
2018-01-31T04:40:17.143Z,96.50
2018-01-31T04:42:45.885Z,96.20
2018-01-31T04:45:14.556Z,95.70
2018-01-31T04:47:43.201Z,95.60
2018-01-31T04:50:11.785Z,95.40
2018-01-31T04:52:40.433Z,95.30
2018-01-31T04:55:09.930Z,95.40
2018-01-31T04:57:38.521Z,95.20
2018-01-31T05:00:07.165Z,95.00
2018-01-31T05:02:35.787Z,94.80
2018-01-31T05:05:05.206Z,94.60
2018-01-31T05:07:33.860Z,94.50
2018-01-31T05:10:02.614Z,94.50
2018-01-31T05:12:31.409Z,94.50
2018-01-31T05:15:00.061Z,94.60
2018-01-31T05:17:28.697Z,94.40
2018-01-31T05:19:57.404Z,94.40
2018-01-31T05:22:26.120Z,94.60
2018-01-31T05:24:54.718Z,94.60
2018-01-31T05:27:23.356Z,94.40
2018-01-31T05:29:52.077Z,94.50
2018-01-31T05:32:20.689Z,94.50
2018-01-31T05:34:49.312Z,94.50
2018-01-31T05:37:18.449Z,94.40
2018-01-31T05:39:47.056Z,94.30
2018-01-31T05:42:16.084Z,94.30
2018-01-31T05:44:44.731Z,94.10
2018-01-31T05:47:13.364Z,94.10
2018-01-31T05:49:42.013Z,94.00
2018-01-31T05:52:10.728Z,93.90
2018-01-31T05:54:39.546Z,93.70
2018-01-31T05:57:08.341Z,93.40
2018-01-31T05:59:37.031Z,93.50
2018-01-31T06:02:05.650Z,93.40
2018-01-31T06:04:34.286Z,93.50
2018-01-31T06:07:02.945Z,93.50
2018-01-31T06:09:31.608Z,93.40
2018-01-31T06:12:01.178Z,93.20
2018-01-31T06:14:30.712Z,93.00
2018-01-31T06:16:59.370Z,93.00
2018-01-31T06:19:28.063Z,93.30
2018-01-31T06:21:56.744Z,93.30
2018-01-31T06:24:25.336Z,93.40
2018-01-31T06:26:53.988Z,93.60
2018-01-31T06:29:22.821Z,93.50
2018-01-31T06:31:51.590Z,93.50
2018-01-31T06:34:22.182Z,93.60
2018-01-31T06:36:51.609Z,93.60
2018-01-31T06:39:23.147Z,93.60
2018-01-31T06:41:51.792Z,93.60
2018-01-31T06:44:20.404Z,93.50
2018-01-31T06:46:49.149Z,93.60
2018-01-31T06:49:17.875Z,93.50
2018-01-31T06:51:47.432Z,93.40
2018-01-31T06:54:16.962Z,93.50
2018-01-31T06:56:45.567Z,93.50
2018-01-31T06:59:14.274Z,93.50
2018-01-31T07:01:42.975Z,93.70
2018-01-31T07:04:11.716Z,93.70
2018-01-31T07:06:40.572Z,93.80
2018-01-31T07:11:43.976Z,93.80
2018-01-31T07:14:12.622Z,93.70
2018-01-31T07:16:42.036Z,93.80
2018-01-31T07:19:10.666Z,93.80
2018-01-31T07:21:39.471Z,93.60
2018-01-31T07:24:08.093Z,93.50
2018-01-31T07:26:36.791Z,93.40
2018-01-31T07:29:05.554Z,93.30
2018-01-31T07:31:34.928Z,93.10
2018-01-31T07:34:03.852Z,93.10
2018-01-31T07:36:32.795Z,93.30
2018-01-31T07:39:01.489Z,93.30
2018-01-31T07:41:30.158Z,93.20
2018-01-31T07:43:58.864Z,93.10
2018-01-31T07:46:28.751Z,93.20
2018-01-31T07:48:57.603Z,93.10
2018-01-31T07:51:28.184Z,92.80
2018-01-31T07:53:57.074Z,92.80
2018-01-31T07:56:25.765Z,92.60
2018-01-31T07:58:54.405Z,92.20
2018-01-31T08:01:24.072Z,92.00
2018-01-31T08:03:52.798Z,92.10
2018-01-31T08:06:21.413Z,92.00
2018-01-31T08:08:50.010Z,92.20
2018-01-31T08:11:18.767Z,92.00
2018-01-31T08:13:47.373Z,92.00
2018-01-31T08:16:15.971Z,92.00
2018-01-31T08:18:44.755Z,92.00
2018-01-31T08:21:13.522Z,92.00
2018-01-31T08:23:42.282Z,91.90
2018-01-31T08:26:11.026Z,91.50
2018-01-31T08:28:39.710Z,90.80
2018-01-31T08:31:09.114Z,90.50
2018-01-31T08:33:37.682Z,90.40
2018-01-31T08:36:06.428Z,90.00
2018-01-31T08:38:35.030Z,89.60
2018-01-31T08:41:03.652Z,89.10
2018-01-31T08:43:32.413Z,88.60
2018-01-31T08:46:01.034Z,88.80
2018-01-31T08:48:29.652Z,88.00
2018-01-31T08:50:58.298Z,87.20
2018-01-31T08:53:26.981Z,86.00
2018-01-31T08:55:55.736Z,85.20
2018-01-31T08:58:24.485Z,84.60
2018-01-31T09:00:53.261Z,84.60
2018-01-31T09:03:21.873Z,83.50
2018-01-31T09:05:50.546Z,82.70
2018-01-31T09:08:19.110Z,81.70
2018-01-31T09:10:47.685Z,80.80
2018-01-31T09:13:16.393Z,79.90
2018-01-31T09:15:45.031Z,79.40
2018-01-31T09:18:13.670Z,79.20
2018-01-31T09:20:43.141Z,78.90
2018-01-31T09:23:11.752Z,78.80
2018-01-31T09:25:40.333Z,78.20
2018-01-31T09:28:08.960Z,77.40
2018-01-31T09:30:38.310Z,76.80
2018-01-31T09:33:06.871Z,76.80
2018-01-31T09:35:35.508Z,77.30
2018-01-31T09:38:05.004Z,76.50
2018-01-31T09:40:33.595Z,76.40
2018-01-31T09:43:02.444Z,76.80
2018-01-31T09:45:31.106Z,76.90
2018-01-31T09:48:00.562Z,76.50
2018-01-31T09:50:30.796Z,75.80
2018-01-31T09:53:02.452Z,74.50
2018-01-31T09:55:29.829Z,74.40
2018-01-31T09:57:58.445Z,75.40
2018-01-31T10:00:27.071Z,75.30
2018-01-31T10:02:55.822Z,74.30
2018-01-31T10:05:24.447Z,73.50
2018-01-31T10:07:53.046Z,73.50
2018-01-31T10:10:22.417Z,73.40
2018-01-31T10:12:51.111Z,73.40
2018-01-31T10:15:19.868Z,72.20
2018-01-31T10:17:48.584Z,73.00
2018-01-31T10:20:17.213Z,73.40
2018-01-31T10:22:45.799Z,73.20
2018-01-31T10:25:14.512Z,73.20
2018-01-31T10:27:43.404Z,72.90
2018-01-31T10:30:12.021Z,72.80
2018-01-31T10:32:40.617Z,72.90
2018-01-31T10:35:09.454Z,72.70
2018-01-31T10:37:38.052Z,72.90
2018-01-31T10:40:06.653Z,71.90
2018-01-31T10:42:35.291Z,72.20
2018-01-31T10:45:03.898Z,71.90
2018-01-31T10:47:32.469Z,71.60
2018-01-31T10:50:01.135Z,72.10
2018-01-31T10:52:30.743Z,71.90
2018-01-31T10:57:29.932Z,73.50
2018-01-31T10:59:58.362Z,73.50
2018-01-31T11:02:28.694Z,72.40
2018-01-31T11:04:57.379Z,72.20
2018-01-31T11:07:25.990Z,73.10
2018-01-31T11:09:54.754Z,74.10
2018-01-31T11:12:23.396Z,75.50
2018-01-31T11:14:52.050Z,76.70
2018-01-31T11:17:20.683Z,77.50
2018-01-31T11:19:49.486Z,77.80
2018-01-31T11:22:18.169Z,77.40
2018-01-31T11:24:46.900Z,78.00
2018-01-31T11:27:15.700Z,78.50
2018-01-31T11:29:45.074Z,78.20
2018-01-31T11:32:14.469Z,78.20
2018-01-31T11:34:43.121Z,78.00
2018-01-31T11:37:11.799Z,78.90
2018-01-31T11:39:41.157Z,78.40
2018-01-31T11:42:09.869Z,78.30
2018-01-31T11:44:38.716Z,78.20
2018-01-31T11:47:07.401Z,78.90
2018-01-31T11:49:36.123Z,78.30
2018-01-31T11:52:04.789Z,78.60
2018-01-31T11:54:33.419Z,78.50
2018-01-31T11:57:02.042Z,77.70
2018-01-31T11:59:32.000Z,78.80
2018-01-31T12:02:00.668Z,78.70
2018-01-31T12:04:29.377Z,79.00
2018-01-31T12:06:58.031Z,79.30
2018-01-31T12:09:36.471Z,77.70
2018-01-31T12:12:05.009Z,77.20
2018-01-31T12:14:45.393Z,76.90
2018-01-31T12:17:14.699Z,76.30
2018-01-31T12:20:06.997Z,76.30
2018-01-31T12:22:47.236Z,75.50
2018-01-31T12:25:27.463Z,75.50
2018-01-31T12:28:08.497Z,74.70
2018-01-31T12:30:42.948Z,73.90
2018-01-31T12:33:24.038Z,73.70
2018-01-31T12:36:04.482Z,73.70
2018-01-31T12:38:44.686Z,73.60
2018-01-31T12:41:12.739Z,72.90
2018-01-31T12:43:40.873Z,73.00
2018-01-31T12:46:21.229Z,72.70
2018-01-31T12:49:02.527Z,72.40
2018-01-31T12:51:45.538Z,73.10
2018-01-31T12:54:26.620Z,72.50
2018-01-31T12:57:07.683Z,71.80
2018-01-31T12:59:47.889Z,71.70
2018-01-31T13:02:24.414Z,72.10
2018-01-31T13:05:04.982Z,72.10
2018-01-31T13:07:45.159Z,72.40
2018-01-31T13:10:25.147Z,72.20
2018-01-31T13:13:05.366Z,72.20
2018-01-31T13:18:47.082Z,73.60
2018-01-31T13:21:27.211Z,74.30
2018-01-31T13:24:07.316Z,74.00
2018-01-31T13:29:52.414Z,74.70
2018-01-31T13:32:32.568Z,75.30
2018-01-31T13:35:12.783Z,74.70
2018-01-31T13:41:05.413Z,75.70
2018-01-31T13:43:45.573Z,75.80
2018-01-31T13:46:25.810Z,75.90
2018-01-31T13:49:05.794Z,75.70
2018-01-31T13:51:43.856Z,74.90
2018-01-31T13:54:24.058Z,74.80
2018-01-31T13:57:04.086Z,75.30
2018-01-31T13:59:44.004Z,75.50
2018-01-31T14:05:36.162Z,75.10
2018-01-31T14:08:16.408Z,74.80
2018-01-31T14:10:56.630Z,74.70
2018-01-31T14:13:36.654Z,74.60
2018-01-31T14:16:17.554Z,73.90
2018-01-31T14:18:57.915Z,74.40
2018-01-31T14:21:37.984Z,73.00
2018-01-31T14:24:15.973Z,73.00
2018-01-31T14:26:56.126Z,73.00
2018-01-31T14:29:36.145Z,73.50
2018-01-31T14:32:16.254Z,73.80
2018-01-31T14:34:56.390Z,74.00
2018-01-31T14:37:24.174Z,74.70
2018-01-31T14:39:51.949Z,74.70
2018-01-31T14:42:19.782Z,74.30
2018-01-31T14:44:47.625Z,73.10
2018-01-31T14:47:15.517Z,72.60
2018-01-31T14:49:43.312Z,72.70
2018-01-31T14:52:11.824Z,72.70
2018-01-31T14:54:39.637Z,72.60
2018-01-31T14:57:07.415Z,73.00
2018-01-31T14:59:35.267Z,72.10
2018-01-31T15:02:03.009Z,71.30
2018-01-31T15:04:31.878Z,65.70
2018-01-31T15:06:59.628Z,65.70
2018-01-31T15:09:27.398Z,65.80
2018-01-31T15:11:55.189Z,64.90
2018-01-31T15:14:22.945Z,67.10
2018-01-31T15:16:51.115Z,68.40
2018-01-31T15:19:22.979Z,69.00
2018-01-31T15:21:50.805Z,67.30
2018-01-31T15:24:18.595Z,69.00
2018-01-31T15:26:47.908Z,70.40
2018-01-31T15:29:15.708Z,72.20
2018-01-31T15:31:43.453Z,72.90
2018-01-31T15:34:11.223Z,73.20
2018-01-31T15:36:38.981Z,73.20
2018-01-31T15:39:06.751Z,73.70
2018-01-31T15:41:35.456Z,73.60
2018-01-31T15:44:03.291Z,73.80
2018-01-31T15:46:31.042Z,73.60
2018-01-31T15:48:58.818Z,74.00
2018-01-31T15:51:26.554Z,74.30
2018-01-31T15:53:54.479Z,74.40
2018-01-31T15:56:29.441Z,74.60
2018-01-31T15:58:57.954Z,74.90
2018-01-31T16:01:25.839Z,74.80
2018-01-31T16:03:53.736Z,75.10
2018-01-31T16:06:21.496Z,75.70
2018-01-31T16:08:49.274Z,76.20
2018-01-31T16:11:18.047Z,75.80
2018-01-31T16:13:45.898Z,76.60
2018-01-31T16:16:14.090Z,76.70
2018-01-31T16:18:54.143Z,77.20
2018-01-31T16:21:25.170Z,77.70
2018-01-31T16:23:53.613Z,78.80
2018-01-31T16:26:22.110Z,78.90
2018-01-31T16:29:02.212Z,79.40
2018-01-31T16:31:43.014Z,80.50
2018-01-31T16:34:11.428Z,80.40
2018-01-31T16:36:39.933Z,81.00
2018-01-31T16:39:08.524Z,81.40
2018-01-31T16:41:37.543Z,81.50
2018-01-31T16:44:05.943Z,81.60
2018-01-31T16:46:34.435Z,82.30
2018-01-31T16:49:02.869Z,82.40
2018-01-31T16:51:31.296Z,83.20
2018-01-31T16:53:59.800Z,83.70
2018-01-31T16:56:28.196Z,83.90
2018-01-31T16:58:57.372Z,84.70
2018-01-31T17:01:25.874Z,84.60
2018-01-31T17:03:54.321Z,85.10
2018-01-31T17:06:22.694Z,85.40
2018-01-31T17:08:51.350Z,85.90
2018-01-31T17:11:19.908Z,86.30
2018-01-31T17:13:49.169Z,87.30
2018-01-31T17:16:17.954Z,86.70
2018-01-31T17:18:46.654Z,87.30
2018-01-31T17:21:15.432Z,88.00
2018-01-31T17:23:44.179Z,88.70
2018-01-31T17:26:23.914Z,89.30
2018-01-31T17:28:52.603Z,90.00
2018-01-31T17:31:21.482Z,90.20
2018-01-31T17:33:50.368Z,90.20
2018-01-31T17:36:19.306Z,90.30
2018-01-31T17:38:48.047Z,90.40
2018-01-31T17:41:16.756Z,90.40
2018-01-31T17:43:45.451Z,90.50
2018-01-31T17:46:14.897Z,90.70
2018-01-31T17:48:43.815Z,90.90
2018-01-31T17:51:12.559Z,90.70
2018-01-31T17:53:41.247Z,90.80
2018-01-31T17:56:10.705Z,90.80
2018-01-31T17:58:39.526Z,90.80
2018-01-31T18:01:08.302Z,90.60
2018-01-31T18:03:36.965Z,90.50
2018-01-31T18:06:05.786Z,90.40
2018-01-31T18:08:34.565Z,90.60
2018-01-31T18:11:03.326Z,90.80
2018-01-31T18:13:32.605Z,90.70
2018-01-31T18:16:02.283Z,90.50
2018-01-31T18:18:31.003Z,90.40
2018-01-31T18:20:59.911Z,90.30
2018-01-31T18:23:28.555Z,90.20
2018-01-31T18:25:57.246Z,89.00
2018-01-31T18:28:25.888Z,89.10
2018-01-31T18:30:54.519Z,87.90
2018-01-31T18:33:23.147Z,87.70
2018-01-31T18:35:51.844Z,86.70
2018-01-31T18:38:20.460Z,86.00
2018-01-31T18:40:49.841Z,86.80
2018-01-31T18:43:18.488Z,86.70
2018-01-31T18:45:47.140Z,85.90
2018-01-31T18:48:16.503Z,87.20
2018-01-31T18:50:45.151Z,87.10
2018-01-31T18:53:13.830Z,87.80
2018-01-31T18:55:42.454Z,88.10
2018-01-31T18:58:11.265Z,88.60
2018-01-31T19:00:40.430Z,88.70
2018-01-31T19:03:09.073Z,88.90
2018-01-31T19:05:37.763Z,88.70
2018-01-31T19:08:06.390Z,88.70
2018-01-31T19:10:35.027Z,89.30
2018-01-31T19:13:04.413Z,88.80
2018-01-31T19:15:33.052Z,88.70
2018-01-31T19:18:01.757Z,89.30
2018-01-31T19:20:30.391Z,89.00
2018-01-31T19:22:59.055Z,88.60
2018-01-31T19:25:28.477Z,87.00
2018-01-31T19:27:57.135Z,87.00
2018-01-31T19:30:25.887Z,86.70
2018-01-31T19:32:54.536Z,86.60
2018-01-31T19:35:23.258Z,86.70
2018-01-31T19:37:51.944Z,85.80
2018-01-31T19:40:20.541Z,86.00
2018-01-31T19:42:49.434Z,85.90
2018-01-31T19:45:18.157Z,86.10
2018-01-31T19:47:46.778Z,86.20
2018-01-31T19:50:15.430Z,86.20
2018-01-31T19:52:44.266Z,86.40
2018-01-31T19:55:12.980Z,86.40
2018-01-31T19:57:41.814Z,85.50
2018-01-31T20:00:10.472Z,85.10
2018-01-31T20:02:39.210Z,85.40
2018-01-31T20:05:07.846Z,85.60
2018-01-31T20:07:36.446Z,85.70
2018-01-31T20:10:05.853Z,85.70
2018-01-31T20:12:34.782Z,85.60
2018-01-31T20:15:04.271Z,85.90
2018-01-31T20:17:33.075Z,86.00
2018-01-31T20:20:01.833Z,85.70
2018-01-31T20:22:31.210Z,86.00
2018-01-31T20:25:01.700Z,84.80
2018-01-31T20:27:30.836Z,84.90
2018-01-31T20:29:59.782Z,85.50
2018-01-31T20:32:28.469Z,86.10
2018-01-31T20:34:57.293Z,85.90
2018-01-31T20:37:26.724Z,85.50
2018-01-31T20:39:56.129Z,84.90
2018-01-31T20:42:24.911Z,84.80
2018-01-31T20:44:54.331Z,84.80
2018-01-31T20:47:23.157Z,84.80
2018-01-31T20:49:51.911Z,85.00
2018-01-31T20:52:20.947Z,85.70
2018-01-31T20:54:49.811Z,86.20
2018-01-31T20:57:18.407Z,86.10
2018-01-31T20:59:47.041Z,85.70
2018-01-31T21:02:16.455Z,85.80
2018-01-31T21:04:45.135Z,85.80
2018-01-31T21:07:14.069Z,86.10
2018-01-31T21:09:42.752Z,86.30
2018-01-31T21:12:12.208Z,86.80
2018-01-31T21:14:40.857Z,86.80
2018-01-31T21:17:09.545Z,87.20
2018-01-31T21:19:38.130Z,87.70
2018-01-31T21:22:06.743Z,88.60
2018-01-31T21:24:35.388Z,89.20
2018-01-31T21:27:04.773Z,89.60
2018-01-31T21:29:33.418Z,90.10
2018-01-31T21:32:02.066Z,90.50
2018-01-31T21:34:31.675Z,90.70
2018-01-31T21:37:00.310Z,90.90
2018-01-31T21:39:29.216Z,91.10
2018-01-31T21:41:57.865Z,91.20
2018-01-31T21:44:26.470Z,91.40
2018-01-31T21:46:55.959Z,91.80
2018-01-31T21:49:25.439Z,91.90
2018-01-31T21:51:54.109Z,91.90
2018-01-31T21:54:22.798Z,92.00
2018-01-31T21:56:51.451Z,92.10
2018-01-31T21:59:20.163Z,92.20
2018-01-31T22:01:48.791Z,92.20
2018-01-31T22:04:18.323Z,92.00
2018-01-31T22:06:47.114Z,91.90
2018-01-31T22:09:15.816Z,91.90
2018-01-31T22:11:44.610Z,92.10
2018-01-31T22:14:13.370Z,92.10
2018-01-31T22:16:42.301Z,92.30
2018-01-31T22:19:10.927Z,92.30
2018-01-31T22:21:40.334Z,92.50
2018-01-31T22:24:08.958Z,92.40
2018-01-31T22:26:37.750Z,92.50
2018-01-31T22:29:06.452Z,92.60
2018-01-31T22:31:35.153Z,92.60
2018-01-31T22:34:03.810Z,92.60
2018-01-31T22:36:32.504Z,92.60
2018-01-31T22:39:01.217Z,92.70
2018-01-31T22:41:29.933Z,92.70
2018-01-31T22:43:59.382Z,92.70
2018-01-31T22:46:28.070Z,92.70
2018-01-31T22:48:56.693Z,93.80
2018-01-31T22:51:25.338Z,92.70
2018-01-31T22:53:54.008Z,92.70
2018-01-31T22:56:22.624Z,92.80
2018-01-31T22:58:51.212Z,92.90
2018-01-31T23:01:19.864Z,92.90
2018-01-31T23:03:48.549Z,92.90
2018-01-31T23:06:17.369Z,92.90
2018-01-31T23:08:46.201Z,92.80
2018-01-31T23:11:14.931Z,92.90
2018-01-31T23:13:50.083Z,92.80
2018-01-31T23:16:18.868Z,92.80
2018-01-31T23:18:47.510Z,92.80
2018-01-31T23:21:16.202Z,92.70
2018-01-31T23:23:44.789Z,92.70
2018-01-31T23:26:13.706Z,92.70
2018-01-31T23:28:42.434Z,92.80
2018-01-31T23:31:11.282Z,92.70
2018-01-31T23:33:40.299Z,92.80
2018-01-31T23:36:09.008Z,92.70
2018-01-31T23:38:37.812Z,92.80
2018-01-31T23:41:06.515Z,92.90
2018-01-31T23:43:35.300Z,92.90
2018-01-31T23:46:03.977Z,93.00
2018-01-31T23:48:32.886Z,93.00
2018-01-31T23:51:01.775Z,93.10
2018-01-31T23:53:30.516Z,93.20
2018-01-31T23:55:59.380Z,93.30
2018-01-31T23:58:28.266Z,93.40
